Ayvalik, Turkey

12:46 AM EEST on September 03, 2015 (GMT +0300)
Pligoni / Mitilini / Lesvos - SV8DTD | | Change Station
CLOSE
Current Station
Personal Weather Station
Location: Ελλάδα,
Elevation: 131 ft
Nearby Weather Stations

Elev 131 ft 39.07 °N, 26.58 °E | Updated 22 seconds ago

Clear
Clear
74.3 °F
Feels Like 74 °F
N
2.0
Wind Variable Wind from South
Gusts 4.0 mph

Today
High -- | Low -- °F
--% Chance of Precip.
Yesterday
High -- | Low -- °F
Precip. -- in
6:43 AM 7:41 PM
Waning Gibbous, 77% visible
Pressure 29.86 in
Visibility -9999.0 miles
Clouds
Heat Index 74 °F
Dew Point 70 °F
Humidity 86%
Rainfall 0.00 in
Snow Depth Not available.
UV Not available.
Pollen Not available.
Air Quality Not available.
Flu Activity Not available.
METAR LGMT 022050Z 00000KT CAVOK 25/18 Q1011
Pressure 29.86 in
Visibility -9999.0 miles
Clouds
Heat Index 74 °F
Dew Point 70 °F
Humidity 86%
Rainfall 0.00 in
Snow Depth Not available.
UV Not available.
Pollen Not available.
Air Quality Not available.
Flu Activity Not available.
METAR LGMT 022050Z 00000KT CAVOK 25/18 Q1011

10-Day Weather Forecast

×

Almanac

Astronomy

Sep. 03, 2015 Rise Set
Actual Time
Civil Twilight
Nautical Twilight
Astronomical Twilight
Moon
Length of Visible Light
Length of Day
Tomorrow will be .
, % of the Moon is Illuminated

Today's Extremes

Country Highs Country Lows

Community

WunderPhotos

Upload Photos

1,851,818 photos uploaded!

WunderBlogs® & News

Nearby

Air Quality

  Air Quality AQ Index Pollutant
Not available.

Snow Depth

Station Depth Elevation

Earthquake Activity

City Distance Mag. Time & Date
Minimum magnitude displayed is 2.5.

Coastal Water Temperatures

Place Temperature

Stations

Nearby Weather Stations

Station Location Temp. Windchill Dew Point Humidity Wind Precip. Elev Updated Type